createdAt,value
2022-08-28T00:00:49.930Z,100.00
2022-08-28T00:05:51.492Z,100.00
2022-08-28T00:10:54.056Z,100.00
2022-08-28T00:16:00.725Z,100.00
2022-08-28T00:21:02.873Z,100.00
2022-08-28T00:26:04.555Z,100.00
2022-08-28T00:31:08.113Z,100.00
2022-08-28T00:36:11.297Z,100.00
2022-08-28T00:41:12.862Z,100.00
2022-08-28T00:46:23.651Z,100.00
2022-08-28T00:51:44.251Z,100.00
2022-08-28T00:56:47.595Z,100.00
2022-08-28T01:01:54.782Z,100.00
2022-08-28T01:06:57.998Z,100.00
2022-08-28T01:12:06.582Z,100.00
2022-08-28T01:17:09.828Z,100.00
2022-08-28T01:22:20.741Z,100.00
2022-08-28T01:27:23.986Z,100.00
2022-08-28T01:32:38.392Z,100.00
2022-08-28T01:37:41.050Z,100.00
2022-08-28T01:42:43.961Z,100.00
2022-08-28T01:47:46.742Z,100.00
2022-08-28T01:52:48.561Z,100.00
2022-08-28T01:57:53.738Z,100.00
2022-08-28T02:02:57.309Z,100.00
2022-08-28T02:08:00.989Z,100.00
2022-08-28T02:13:05.115Z,100.00
2022-08-28T02:18:07.146Z,100.00
2022-08-28T02:23:09.809Z,100.00
2022-08-28T02:28:11.581Z,100.00
2022-08-28T02:33:13.310Z,100.00
2022-08-28T02:38:15.329Z,100.00
2022-08-28T02:43:17.389Z,100.00
2022-08-28T02:48:19.026Z,100.00
2022-08-28T02:53:22.547Z,100.00
2022-08-28T02:58:26.808Z,100.00
2022-08-28T03:03:31.074Z,100.00
2022-08-28T03:08:33.146Z,100.00
2022-08-28T03:13:35.356Z,100.00
2022-08-28T03:18:37.250Z,100.00
2022-08-28T03:23:39.040Z,100.00
2022-08-28T03:28:47.110Z,100.00
2022-08-28T03:33:50.289Z,100.00
2022-08-28T03:38:53.981Z,100.00
2022-08-28T03:43:57.387Z,100.00
2022-08-28T03:49:01.393Z,100.00
2022-08-28T03:54:04.440Z,100.00
2022-08-28T03:59:05.996Z,100.00
2022-08-28T04:04:07.605Z,100.00
2022-08-28T04:09:09.208Z,100.00
2022-08-28T04:14:11.795Z,100.00
2022-08-28T04:19:13.377Z,100.00
2022-08-28T04:24:14.971Z,100.00
2022-08-28T04:29:17.741Z,100.00
2022-08-28T04:34:19.495Z,100.00
2022-08-28T04:39:21.115Z,100.00
2022-08-28T04:44:22.713Z,100.00
2022-08-28T04:49:25.969Z,100.00
2022-08-28T04:54:27.792Z,100.00
2022-08-28T04:59:29.753Z,100.00
2022-08-28T05:04:31.357Z,100.00
2022-08-28T05:09:34.859Z,100.00
2022-08-28T05:14:36.666Z,100.00
2022-08-28T05:19:39.279Z,100.00
2022-08-28T05:24:40.817Z,100.00
2022-08-28T05:29:42.371Z,100.00
2022-08-28T05:34:43.908Z,100.00
2022-08-28T05:39:45.467Z,100.00
2022-08-28T05:44:47.072Z,100.00
2022-08-28T05:49:48.851Z,100.00
2022-08-28T05:54:53.863Z,100.00
2022-08-28T05:59:55.386Z,100.00
2022-08-28T06:04:57.781Z,100.00
2022-08-28T06:09:59.595Z,100.00
2022-08-28T06:15:01.225Z,100.00
2022-08-28T06:20:02.832Z,100.00
2022-08-28T06:25:08.138Z,100.00
2022-08-28T06:30:10.138Z,100.00
2022-08-28T06:35:11.948Z,100.00
2022-08-28T06:40:14.138Z,99.44
2022-08-28T06:45:16.396Z,98.99
2022-08-28T06:50:17.959Z,99.48
2022-08-28T06:55:19.537Z,99.44
2022-08-28T07:00:21.198Z,97.44
2022-08-28T07:05:23.055Z,97.67
2022-08-28T07:10:24.814Z,96.45
2022-08-28T07:15:27.222Z,95.42
2022-08-28T07:20:28.797Z,95.36
2022-08-28T07:25:30.456Z,94.57
2022-08-28T07:30:32.027Z,93.05
2022-08-28T07:35:33.590Z,89.34
2022-08-28T07:40:35.201Z,87.74
2022-08-28T07:45:36.933Z,82.69
2022-08-28T07:50:38.511Z,83.23
2022-08-28T07:55:43.063Z,81.57
2022-08-28T08:00:45.089Z,79.06
2022-08-28T08:05:55.339Z,79.13
2022-08-28T08:11:03.232Z,76.69
2022-08-28T08:16:09.387Z,76.63
2022-08-28T08:21:14.011Z,76.35
2022-08-28T08:26:21.569Z,75.10
2022-08-28T08:31:33.697Z,76.72
2022-08-28T08:36:38.404Z,74.62
2022-08-28T08:41:48.021Z,71.06
2022-08-28T08:46:58.666Z,70.20
2022-08-28T08:52:06.706Z,69.14
2022-08-28T08:57:14.701Z,69.29
2022-08-28T09:02:31.273Z,69.24
2022-08-28T09:07:53.191Z,66.29
2022-08-28T09:13:04.974Z,66.46
2022-08-28T09:18:22.389Z,68.77
2022-08-28T09:23:25.414Z,66.94
2022-08-28T09:28:31.391Z,65.77
2022-08-28T09:33:41.636Z,65.42
2022-08-28T09:38:43.453Z,60.96
2022-08-28T09:43:46.683Z,59.64
2022-08-28T09:48:52.426Z,62.12
2022-08-28T09:53:54.555Z,62.42
2022-08-28T09:59:08.452Z,63.55
2022-08-28T10:04:20.751Z,57.03
2022-08-28T10:09:47.780Z,52.93
2022-08-28T10:15:04.851Z,56.47
2022-08-28T10:20:44.975Z,53.08
2022-08-28T10:25:54.756Z,46.34
2022-08-28T10:31:05.586Z,49.21
2022-08-28T10:36:33.998Z,54.78
2022-08-28T10:41:58.234Z,53.75
2022-08-28T10:47:01.603Z,53.10
2022-08-28T10:52:41.848Z,43.58
2022-08-28T10:57:53.060Z,43.01
2022-08-28T11:02:58.217Z,45.09
2022-08-28T11:08:05.218Z,48.64
2022-08-28T11:13:10.092Z,48.27
2022-08-28T11:18:11.668Z,46.53
2022-08-28T11:23:17.372Z,51.84
2022-08-28T11:28:26.077Z,55.55
2022-08-28T11:33:41.421Z,52.01
2022-08-28T11:38:43.383Z,52.70
2022-08-28T11:43:47.219Z,51.14
2022-08-28T11:48:54.694Z,52.90
2022-08-28T11:54:43.914Z,54.12
2022-08-28T11:59:57.741Z,52.36
2022-08-28T12:04:59.413Z,47.13
2022-08-28T12:10:04.952Z,48.01
2022-08-28T12:15:08.692Z,51.09
2022-08-28T12:20:19.292Z,51.98
2022-08-28T12:25:35.249Z,52.31
2022-08-28T12:30:44.413Z,53.55
2022-08-28T12:35:46.157Z,57.45
2022-08-28T12:40:52.936Z,57.59
2022-08-28T12:45:57.666Z,57.61
2022-08-28T12:51:14.205Z,55.26
2022-08-28T12:56:19.292Z,56.18
2022-08-28T13:01:31.339Z,56.92
2022-08-28T13:06:36.569Z,59.44
2022-08-28T13:11:40.133Z,57.21
2022-08-28T13:16:41.654Z,54.93
2022-08-28T13:21:46.181Z,53.04
2022-08-28T13:26:50.749Z,51.61
2022-08-28T13:31:59.430Z,52.86
2022-08-28T13:37:04.191Z,53.14
2022-08-28T13:42:15.891Z,52.20
2022-08-28T13:47:17.790Z,51.70
2022-08-28T13:52:19.356Z,51.84
2022-08-28T13:57:21.545Z,52.44
2022-08-28T14:02:41.665Z,52.09
2022-08-28T14:07:44.073Z,54.88
2022-08-28T14:12:47.700Z,54.67
2022-08-28T14:17:49.264Z,53.26
2022-08-28T14:22:50.943Z,55.91
2022-08-28T14:27:52.570Z,56.80
2022-08-28T14:32:54.720Z,55.02
2022-08-28T14:37:56.370Z,54.96
2022-08-28T14:42:57.931Z,53.84
2022-08-28T14:47:59.703Z,54.30
2022-08-28T14:53:01.890Z,54.10
2022-08-28T14:58:03.453Z,54.14
2022-08-28T15:03:05.255Z,54.43
2022-08-28T15:08:09.468Z,55.66
2022-08-28T15:13:12.650Z,56.41
2022-08-28T15:18:14.525Z,57.02
2022-08-28T15:23:16.321Z,61.13
2022-08-28T15:28:18.987Z,61.85
2022-08-28T15:33:20.532Z,61.83
2022-08-28T15:38:22.747Z,62.85
2022-08-28T15:43:24.325Z,64.82
2022-08-28T15:48:25.939Z,65.71
2022-08-28T15:53:27.492Z,68.33
2022-08-28T15:58:31.339Z,69.48
2022-08-28T16:03:32.839Z,71.22
2022-08-28T16:08:34.453Z,72.74
2022-08-28T16:13:36.211Z,73.83
2022-08-28T16:18:37.843Z,75.38
2022-08-28T16:23:40.099Z,76.99
2022-08-28T16:28:43.630Z,79.09
2022-08-28T16:33:45.271Z,80.61
2022-08-28T16:38:49.367Z,81.75
2022-08-28T16:44:01.350Z,83.51
2022-08-28T16:49:03.048Z,83.37
2022-08-28T16:54:04.651Z,83.99
2022-08-28T16:59:10.440Z,84.37
2022-08-28T17:04:12.265Z,84.92
2022-08-28T17:09:13.923Z,84.65
2022-08-28T17:14:15.514Z,85.32
2022-08-28T17:19:17.837Z,85.44
2022-08-28T17:24:19.614Z,86.44
2022-08-28T17:29:21.261Z,88.33
2022-08-28T17:34:25.763Z,89.26
2022-08-28T17:39:31.358Z,91.34
2022-08-28T17:44:33.310Z,92.32
2022-08-28T17:49:34.979Z,92.63
2022-08-28T17:54:36.615Z,94.35
2022-08-28T17:59:38.284Z,94.48
2022-08-28T18:04:39.868Z,95.30
2022-08-28T18:09:41.644Z,96.53
2022-08-28T18:14:43.412Z,96.54
2022-08-28T18:19:45.074Z,97.19
2022-08-28T18:24:52.478Z,98.14
2022-08-28T18:29:54.427Z,99.00
2022-08-28T18:34:56.064Z,100.00
2022-08-28T18:39:57.642Z,100.00
2022-08-28T18:45:01.647Z,100.00
2022-08-28T18:50:05.420Z,100.00
2022-08-28T18:55:08.555Z,100.00
2022-08-28T19:00:10.998Z,100.00
2022-08-28T19:05:13.312Z,100.00
2022-08-28T19:10:32.017Z,100.00
2022-08-28T19:15:35.696Z,100.00
2022-08-28T19:20:37.688Z,100.00
2022-08-28T19:25:39.243Z,100.00
2022-08-28T19:30:40.857Z,100.00
2022-08-28T19:35:42.789Z,100.00
2022-08-28T19:40:45.449Z,100.00
2022-08-28T19:45:47.220Z,100.00
2022-08-28T19:50:48.918Z,100.00
2022-08-28T19:55:51.813Z,100.00
2022-08-28T20:00:53.369Z,100.00
2022-08-28T20:05:55.739Z,100.00
2022-08-28T20:10:57.802Z,100.00
2022-08-28T20:16:04.889Z,100.00
2022-08-28T20:21:10.944Z,100.00
2022-08-28T20:26:13.530Z,100.00
2022-08-28T20:31:17.869Z,100.00
2022-08-28T20:36:21.210Z,100.00
2022-08-28T20:41:24.099Z,100.00
2022-08-28T20:46:25.755Z,100.00
2022-08-28T20:51:46.236Z,100.00
2022-08-28T20:56:49.123Z,100.00
2022-08-28T21:01:51.487Z,100.00
2022-08-28T21:06:53.074Z,100.00
2022-08-28T21:11:54.724Z,100.00
2022-08-28T21:16:57.436Z,100.00
2022-08-28T21:21:59.528Z,100.00
2022-08-28T21:27:02.231Z,100.00
2022-08-28T21:32:04.344Z,100.00
2022-08-28T21:37:06.420Z,100.00
2022-08-28T21:42:08.066Z,100.00
2022-08-28T21:47:09.671Z,100.00
2022-08-28T21:52:11.431Z,100.00
2022-08-28T21:57:12.990Z,100.00
2022-08-28T22:02:14.590Z,100.00
2022-08-28T22:07:17.768Z,100.00
2022-08-28T22:12:19.645Z,100.00
2022-08-28T22:17:21.408Z,100.00
2022-08-28T22:22:41.377Z,100.00
2022-08-28T22:27:43.000Z,100.00
2022-08-28T22:32:45.300Z,100.00
2022-08-28T22:37:47.179Z,100.00
2022-08-28T22:42:50.434Z,100.00
2022-08-28T22:47:52.803Z,100.00
2022-08-28T22:52:54.477Z,100.00
2022-08-28T22:57:56.090Z,100.00
2022-08-28T23:02:58.235Z,100.00
2022-08-28T23:07:59.781Z,100.00
2022-08-28T23:13:01.318Z,100.00
2022-08-28T23:18:02.972Z,100.00
2022-08-28T23:23:05.816Z,100.00
2022-08-28T23:28:07.570Z,100.00
2022-08-28T23:33:09.272Z,100.00
2022-08-28T23:38:10.953Z,100.00
2022-08-28T23:43:15.466Z,100.00
2022-08-28T23:48:17.747Z,100.00
2022-08-28T23:53:19.556Z,100.00
2022-08-28T23:58:22.519Z,100.00
